sensor_id;sensor_type;location;lat;lon;timestamp;pressure;altitude;pressure_sealevel;temperature;humidity
21504;BME280;10913;51.992;9.228;2023-05-28T00:01:37;100859.81;;;12.98;86.41
21504;BME280;10913;51.992;9.228;2023-05-28T00:04:02;100857.19;;;12.94;86.98
21504;BME280;10913;51.992;9.228;2023-05-28T00:06:27;100848.38;;;12.89;87.18
21504;BME280;10913;51.992;9.228;2023-05-28T00:08:53;100846.63;;;12.85;87.50
21504;BME280;10913;51.992;9.228;2023-05-28T00:11:18;100846.63;;;12.83;87.66
21504;BME280;10913;51.992;9.228;2023-05-28T00:13:43;100849.28;;;12.83;87.46
21504;BME280;10913;51.992;9.228;2023-05-28T00:16:09;100839.56;;;12.81;87.47
21504;BME280;10913;51.992;9.228;2023-05-28T00:18:38;100843.16;;;12.78;87.54
21504;BME280;10913;51.992;9.228;2023-05-28T00:21:03;100838.78;;;12.72;87.57
21504;BME280;10913;51.992;9.228;2023-05-28T00:23:28;100841.44;;;12.68;87.63
21504;BME280;10913;51.992;9.228;2023-05-28T00:25:54;100837.91;;;12.67;87.54
21504;BME280;10913;51.992;9.228;2023-05-28T00:28:19;100839.69;;;12.64;87.42
21504;BME280;10913;51.992;9.228;2023-05-28T00:30:44;100833.56;;;12.59;87.44
21504;BME280;10913;51.992;9.228;2023-05-28T00:33:10;100841.53;;;12.54;87.80
21504;BME280;10913;51.992;9.228;2023-05-28T00:35:36;100835.34;;;12.54;87.88
21504;BME280;10913;51.992;9.228;2023-05-28T00:38:01;100838.91;;;12.53;88.04
21504;BME280;10913;51.992;9.228;2023-05-28T00:40:26;100830.06;;;12.49;88.06
21504;BME280;10913;51.992;9.228;2023-05-28T00:42:52;100830.09;;;12.46;88.19
21504;BME280;10913;51.992;9.228;2023-05-28T00:45:18;100830.97;;;12.45;88.22
21504;BME280;10913;51.992;9.228;2023-05-28T00:47:44;100830.97;;;12.45;88.00
21504;BME280;10913;51.992;9.228;2023-05-28T00:50:10;100836.28;;;12.42;88.18
21504;BME280;10913;51.992;9.228;2023-05-28T00:52:38;100834.56;;;12.38;88.52
21504;BME280;10913;51.992;9.228;2023-05-28T00:55:21;100832.81;;;12.34;88.57
21504;BME280;10913;51.992;9.228;2023-05-28T00:57:47;100836.38;;;12.31;88.48
21504;BME280;10913;51.992;9.228;2023-05-28T01:00:15;100831.94;;;12.30;88.57
21504;BME280;10913;51.992;9.228;2023-05-28T01:02:41;100829.31;;;12.27;88.57
21504;BME280;10913;51.992;9.228;2023-05-28T01:05:07;100825.78;;;12.24;88.78
21504;BME280;10913;51.992;9.228;2023-05-28T01:07:33;100817.84;;;12.21;88.76
21504;BME280;10913;51.992;9.228;2023-05-28T01:09:59;100811.72;;;12.16;88.89
21504;BME280;10913;51.992;9.228;2023-05-28T01:12:25;100810.84;;;12.11;89.02
21504;BME280;10913;51.992;9.228;2023-05-28T01:14:52;100810.00;;;12.05;89.26
21504;BME280;10913;51.992;9.228;2023-05-28T01:17:18;100822.34;;;12.03;89.31
21504;BME280;10913;51.992;9.228;2023-05-28T01:19:44;100810.91;;;12.00;89.33
21504;BME280;10913;51.992;9.228;2023-05-28T01:22:16;100815.31;;;11.99;89.83
21504;BME280;10913;51.992;9.228;2023-05-28T01:24:43;100814.47;;;11.99;89.56
21504;BME280;10913;51.992;9.228;2023-05-28T01:27:10;100808.28;;;11.98;89.53
21504;BME280;10913;51.992;9.228;2023-05-28T01:29:36;100813.59;;;11.95;89.56
21504;BME280;10913;51.992;9.228;2023-05-28T01:32:02;100815.34;;;11.93;89.81
21504;BME280;10913;51.992;9.228;2023-05-28T01:34:27;100816.25;;;11.91;89.96
21504;BME280;10913;51.992;9.228;2023-05-28T01:37:00;100810.94;;;11.89;89.69
21504;BME280;10913;51.992;9.228;2023-05-28T01:39:28;100810.97;;;11.86;89.76
21504;BME280;10913;51.992;9.228;2023-05-28T01:41:56;100811.84;;;11.82;89.89
21504;BME280;10913;51.992;9.228;2023-05-28T01:44:23;100810.09;;;11.81;89.95
21504;BME280;10913;51.992;9.228;2023-05-28T01:46:49;100810.13;;;11.78;89.93
21504;BME280;10913;51.992;9.228;2023-05-28T01:49:18;100813.63;;;11.76;89.93
21504;BME280;10913;51.992;9.228;2023-05-28T01:51:44;100811.88;;;11.70;90.21
21504;BME280;10913;51.992;9.228;2023-05-28T01:54:10;100811.00;;;11.68;90.37
21504;BME280;10913;51.992;9.228;2023-05-28T01:56:35;100805.69;;;11.65;90.56
21504;BME280;10913;51.992;9.228;2023-05-28T01:59:01;100810.13;;;11.63;90.57
21504;BME280;10913;51.992;9.228;2023-05-28T02:01:31;100804.81;;;11.60;90.67
21504;BME280;10913;51.992;9.228;2023-05-28T02:03:59;100803.97;;;11.56;90.53
21504;BME280;10913;51.992;9.228;2023-05-28T02:06:31;100798.69;;;11.52;90.70
21504;BME280;10913;51.992;9.228;2023-05-28T02:08:56;100798.69;;;11.47;90.98
21504;BME280;10913;51.992;9.228;2023-05-28T02:11:22;100795.16;;;11.47;90.92
21504;BME280;10913;51.992;9.228;2023-05-28T02:13:48;100792.53;;;11.42;90.68
21504;BME280;10913;51.992;9.228;2023-05-28T02:16:14;100787.25;;;11.39;91.13
21504;BME280;10913;51.992;9.228;2023-05-28T02:18:43;100783.75;;;11.37;91.07
21504;BME280;10913;51.992;9.228;2023-05-28T02:21:08;100784.63;;;11.34;91.18
21504;BME280;10913;51.992;9.228;2023-05-28T02:23:33;100788.16;;;11.32;91.17
21504;BME280;10913;51.992;9.228;2023-05-28T02:25:59;100778.47;;;11.29;91.22
21504;BME280;10913;51.992;9.228;2023-05-28T02:28:26;100784.63;;;11.28;91.31
21504;BME280;10913;51.992;9.228;2023-05-28T02:30:51;100783.75;;;11.26;91.23
21504;BME280;10913;51.992;9.228;2023-05-28T02:33:17;100785.50;;;11.24;91.14
21504;BME280;10913;51.992;9.228;2023-05-28T02:35:42;100784.63;;;11.22;91.08
21504;BME280;10913;51.992;9.228;2023-05-28T02:38:07;100781.97;;;11.22;90.91
21504;BME280;10913;51.992;9.228;2023-05-28T02:40:33;100791.69;;;11.22;90.85
21504;BME280;10913;51.992;9.228;2023-05-28T02:42:58;100792.59;;;11.16;91.24
21504;BME280;10913;51.992;9.228;2023-05-28T02:45:24;100791.72;;;11.13;91.27
21504;BME280;10913;51.992;9.228;2023-05-28T02:47:49;100799.63;;;11.08;91.42
21504;BME280;10913;51.992;9.228;2023-05-28T02:50:14;100799.63;;;11.05;91.54
21504;BME280;10913;51.992;9.228;2023-05-28T02:52:40;100802.28;;;11.02;91.49
21504;BME280;10913;51.992;9.228;2023-05-28T02:55:06;100807.56;;;11.00;91.45
21504;BME280;10913;51.992;9.228;2023-05-28T02:57:31;100809.34;;;10.98;91.52
21504;BME280;10913;51.992;9.228;2023-05-28T02:59:57;100804.94;;;10.96;91.50
21504;BME280;10913;51.992;9.228;2023-05-28T03:02:22;100804.06;;;10.92;91.61
21504;BME280;10913;51.992;9.228;2023-05-28T03:04:47;100808.47;;;10.89;91.75
21504;BME280;10913;51.992;9.228;2023-05-28T03:07:13;100810.22;;;10.87;91.88
21504;BME280;10913;51.992;9.228;2023-05-28T03:09:38;100815.50;;;10.87;91.69
21504;BME280;10913;51.992;9.228;2023-05-28T03:12:04;100812.84;;;10.82;91.71
21504;BME280;10913;51.992;9.228;2023-05-28T03:14:29;100806.72;;;10.79;92.22
21504;BME280;10913;51.992;9.228;2023-05-28T03:16:55;100808.44;;;10.80;92.27
21504;BME280;10913;51.992;9.228;2023-05-28T03:19:21;100804.94;;;10.78;92.37
21504;BME280;10913;51.992;9.228;2023-05-28T03:21:46;100804.94;;;10.75;92.34
21504;BME280;10913;51.992;9.228;2023-05-28T03:24:11;100807.56;;;10.68;92.66
21504;BME280;10913;51.992;9.228;2023-05-28T03:26:37;100809.31;;;10.63;93.41
21504;BME280;10913;51.992;9.228;2023-05-28T03:29:02;100813.72;;;10.61;93.42
21504;BME280;10913;51.992;9.228;2023-05-28T03:31:29;100813.72;;;10.61;93.15
21504;BME280;10913;51.992;9.228;2023-05-28T03:33:55;100812.84;;;10.61;93.28
21504;BME280;10913;51.992;9.228;2023-05-28T03:36:21;100808.44;;;10.61;93.12
21504;BME280;10913;51.992;9.228;2023-05-28T03:38:47;100812.84;;;10.64;93.07
21504;BME280;10913;51.992;9.228;2023-05-28T03:41:12;100817.25;;;10.63;92.90
21504;BME280;10913;51.992;9.228;2023-05-28T03:43:37;100812.84;;;10.62;93.03
21504;BME280;10913;51.992;9.228;2023-05-28T03:46:03;100815.47;;;10.59;93.46
21504;BME280;10913;51.992;9.228;2023-05-28T03:48:28;100814.59;;;10.62;93.83
21504;BME280;10913;51.992;9.228;2023-05-28T03:50:54;100810.19;;;10.62;93.03
21504;BME280;10913;51.992;9.228;2023-05-28T03:53:19;100803.16;;;10.64;92.88
21504;BME280;10913;51.992;9.228;2023-05-28T03:55:45;100794.34;;;10.62;92.82
21504;BME280;10913;51.992;9.228;2023-05-28T03:58:10;100801.38;;;10.63;92.97
21504;BME280;10913;51.992;9.228;2023-05-28T04:00:39;100800.50;;;10.61;93.12
21504;BME280;10913;51.992;9.228;2023-05-28T04:03:05;100799.63;;;10.61;93.66
21504;BME280;10913;51.992;9.228;2023-05-28T04:05:30;100796.97;;;10.61;93.41
21504;BME280;10913;51.992;9.228;2023-05-28T04:07:56;100799.63;;;10.61;94.18
21504;BME280;10913;51.992;9.228;2023-05-28T04:10:21;100793.47;;;10.62;93.92
21504;BME280;10913;51.992;9.228;2023-05-28T04:12:46;100789.94;;;10.64;94.00
21504;BME280;10913;51.992;9.228;2023-05-28T04:15:12;100786.41;;;10.65;93.56
21504;BME280;10913;51.992;9.228;2023-05-28T04:17:37;100790.81;;;10.66;93.69
21504;BME280;10913;51.992;9.228;2023-05-28T04:20:03;100788.19;;;10.66;93.63
21504;BME280;10913;51.992;9.228;2023-05-28T04:22:32;100785.53;;;10.68;93.63
21504;BME280;10913;51.992;9.228;2023-05-28T04:24:59;100783.78;;;10.72;93.75
21504;BME280;10913;51.992;9.228;2023-05-28T04:27:24;100790.84;;;10.73;94.00
21504;BME280;10913;51.992;9.228;2023-05-28T04:29:50;100789.09;;;10.75;94.24
21504;BME280;10913;51.992;9.228;2023-05-28T04:32:17;100785.56;;;10.79;94.53
21504;BME280;10913;51.992;9.228;2023-05-28T04:34:43;100786.41;;;10.82;94.41
21504;BME280;10913;51.992;9.228;2023-05-28T04:37:08;100786.44;;;10.84;94.69
21504;BME280;10913;51.992;9.228;2023-05-28T04:39:34;100786.44;;;10.85;94.69
21504;BME280;10913;51.992;9.228;2023-05-28T04:41:59;100786.44;;;10.85;95.33
21504;BME280;10913;51.992;9.228;2023-05-28T04:44:28;100789.09;;;10.76;96.72
21504;BME280;10913;51.992;9.228;2023-05-28T04:46:55;100795.25;;;10.77;96.66
21504;BME280;10913;51.992;9.228;2023-05-28T04:49:24;100798.75;;;10.82;97.28
21504;BME280;10913;51.992;9.228;2023-05-28T04:51:49;100797.88;;;10.84;97.27
21504;BME280;10913;51.992;9.228;2023-05-28T04:54:15;100793.47;;;10.89;96.83
21504;BME280;10913;51.992;9.228;2023-05-28T04:56:40;100792.59;;;10.93;96.82
21504;BME280;10913;51.992;9.228;2023-05-28T04:59:06;100789.09;;;10.99;96.81
21504;BME280;10913;51.992;9.228;2023-05-28T05:01:35;100785.53;;;11.06;96.93
21504;BME280;10913;51.992;9.228;2023-05-28T05:04:00;100794.34;;;11.11;96.65
21504;BME280;10913;51.992;9.228;2023-05-28T05:06:26;100797.88;;;11.16;96.73
21504;BME280;10913;51.992;9.228;2023-05-28T05:08:52;100797.84;;;11.22;96.07
21504;BME280;10913;51.992;9.228;2023-05-28T05:11:19;100804.91;;;11.29;95.66
21504;BME280;10913;51.992;9.228;2023-05-28T05:13:44;100797.84;;;11.36;95.81
21504;BME280;10913;51.992;9.228;2023-05-28T05:16:09;100796.06;;;11.43;95.38
21504;BME280;10913;51.992;9.228;2023-05-28T05:18:35;100800.47;;;11.50;95.14
21504;BME280;10913;51.992;9.228;2023-05-28T05:21:00;100802.22;;;11.57;94.94
21504;BME280;10913;51.992;9.228;2023-05-28T05:23:26;100802.16;;;11.63;95.18
21504;BME280;10913;51.992;9.228;2023-05-28T05:25:52;100800.41;;;11.68;94.84
21504;BME280;10913;51.992;9.228;2023-05-28T05:28:17;100800.38;;;11.76;94.62
21504;BME280;10913;51.992;9.228;2023-05-28T05:30:43;100800.38;;;11.85;94.32
21504;BME280;10913;51.992;9.228;2023-05-28T05:33:08;100801.25;;;11.91;94.04
21504;BME280;10913;51.992;9.228;2023-05-28T05:35:33;100802.09;;;11.96;96.55
21504;BME280;10913;51.992;9.228;2023-05-28T05:37:59;100800.34;;;11.98;96.35
21504;BME280;10913;51.992;9.228;2023-05-28T05:40:24;100806.47;;;12.06;95.30
21504;BME280;10913;51.992;9.228;2023-05-28T05:42:50;100794.97;;;12.14;94.70
21504;BME280;10913;51.992;9.228;2023-05-28T05:45:15;100794.00;;;12.24;95.00
21504;BME280;10913;51.992;9.228;2023-05-28T05:47:40;100802.81;;;12.32;96.93
21504;BME280;10913;51.992;9.228;2023-05-28T05:50:06;100806.28;;;12.40;96.91
21504;BME280;10913;51.992;9.228;2023-05-28T05:52:31;100806.22;;;12.49;97.24
21504;BME280;10913;51.992;9.228;2023-05-28T05:54:57;100813.28;;;12.53;96.45
21504;BME280;10913;51.992;9.228;2023-05-28T05:57:22;100807.00;;;12.62;96.08
21504;BME280;10913;51.992;9.228;2023-05-28T05:59:49;100811.38;;;12.70;94.70
21504;BME280;10913;51.992;9.228;2023-05-28T06:02:14;100811.31;;;12.80;94.19
21504;BME280;10913;51.992;9.228;2023-05-28T06:04:40;100813.00;;;12.90;93.96
21504;BME280;10913;51.992;9.228;2023-05-28T06:07:06;100809.41;;;12.98;94.63
21504;BME280;10913;51.992;9.228;2023-05-28T06:09:35;100815.50;;;13.08;96.11
21504;BME280;10913;51.992;9.228;2023-05-28T06:12:00;100814.56;;;13.18;96.68
21504;BME280;10913;51.992;9.228;2023-05-28T06:14:27;100811.81;;;13.27;97.46
21504;BME280;10913;51.992;9.228;2023-05-28T06:16:53;100806.44;;;13.35;98.24
21504;BME280;10913;51.992;9.228;2023-05-28T06:19:18;100809.00;;;13.42;97.04
21504;BME280;10913;51.992;9.228;2023-05-28T06:21:43;100814.25;;;13.49;96.12
21504;BME280;10913;51.992;9.228;2023-05-28T06:24:09;100805.38;;;13.54;95.66
21504;BME280;10913;51.992;9.228;2023-05-28T06:26:35;100803.50;;;13.61;95.72
21504;BME280;10913;51.992;9.228;2023-05-28T06:29:00;100796.31;;;13.70;95.18
21504;BME280;10913;51.992;9.228;2023-05-28T06:31:25;100801.50;;;13.81;95.12
21504;BME280;10913;51.992;9.228;2023-05-28T06:33:51;100804.94;;;13.89;94.67
21504;BME280;10913;51.992;9.228;2023-05-28T06:36:16;100799.50;;;14.00;94.56
21504;BME280;10913;51.992;9.228;2023-05-28T06:38:42;100796.72;;;14.09;94.22
21504;BME280;10913;51.992;9.228;2023-05-28T06:41:08;100799.22;;;14.20;93.65
21504;BME280;10913;51.992;9.228;2023-05-28T06:43:33;100792.00;;;14.31;94.04
21504;BME280;10913;51.992;9.228;2023-05-28T06:45:59;100783.84;;;14.44;93.81
21504;BME280;10913;51.992;9.228;2023-05-28T06:48:25;100786.38;;;14.55;93.42
21504;BME280;10913;51.992;9.228;2023-05-28T06:50:50;100782.66;;;14.65;92.46
21504;BME280;10913;51.992;9.228;2023-05-28T06:53:15;100781.59;;;14.77;92.91
21504;BME280;10913;51.992;9.228;2023-05-28T06:55:41;100777.88;;;14.87;92.71
21504;BME280;10913;51.992;9.228;2023-05-28T06:58:06;100782.03;;;15.02;92.76
21504;BME280;10913;51.992;9.228;2023-05-28T07:00:31;100784.53;;;15.14;92.31
21504;BME280;10913;51.992;9.228;2023-05-28T07:02:57;100793.13;;;15.28;92.66
21504;BME280;10913;51.992;9.228;2023-05-28T07:05:22;100792.88;;;15.42;92.24
21504;BME280;10913;51.992;9.228;2023-05-28T07:07:47;100797.97;;;15.54;92.38
21504;BME280;10913;51.992;9.228;2023-05-28T07:10:13;100800.41;;;15.68;92.15
21504;BME280;10913;51.992;9.228;2023-05-28T07:12:38;100798.34;;;15.82;92.27
21504;BME280;10913;51.992;9.228;2023-05-28T07:15:04;100798.03;;;15.97;91.85
21504;BME280;10913;51.992;9.228;2023-05-28T07:17:31;100794.19;;;16.10;89.05
21504;BME280;10913;51.992;9.228;2023-05-28T07:19:57;100790.34;;;16.24;88.91
21504;BME280;10913;51.992;9.228;2023-05-28T07:22:22;100789.16;;;16.38;88.57
21504;BME280;10913;51.992;9.228;2023-05-28T07:24:49;100796.75;;;16.55;88.48
21504;BME280;10913;51.992;9.228;2023-05-28T07:27:14;100800.00;;;16.69;86.29
21504;BME280;10913;51.992;9.228;2023-05-28T07:29:39;100796.97;;;16.84;85.44
21504;BME280;10913;51.992;9.228;2023-05-28T07:32:05;100796.53;;;17.01;85.91
21504;BME280;10913;51.992;9.228;2023-05-28T07:34:30;100789.03;;;17.17;86.30
21504;BME280;10913;51.992;9.228;2023-05-28T07:36:56;100793.88;;;17.35;86.15
21504;BME280;10913;51.992;9.228;2023-05-28T07:39:22;100791.75;;;17.48;81.74
21504;BME280;10913;51.992;9.228;2023-05-28T07:41:47;100789.47;;;17.67;82.78
21504;BME280;10913;51.992;9.228;2023-05-28T07:44:13;100791.81;;;17.79;78.43
21504;BME280;10913;51.992;9.228;2023-05-28T07:46:40;100791.47;;;17.91;78.70
21504;BME280;10913;51.992;9.228;2023-05-28T07:49:06;100785.63;;;18.08;77.05
21504;BME280;10913;51.992;9.228;2023-05-28T07:51:31;100779.59;;;18.31;76.74
21504;BME280;10913;51.992;9.228;2023-05-28T07:53:58;100783.38;;;18.51;75.06
21504;BME280;10913;51.992;9.228;2023-05-28T07:56:23;100782.94;;;18.67;73.49
21504;BME280;10913;51.992;9.228;2023-05-28T07:58:49;100781.44;;;18.84;72.21
21504;BME280;10913;51.992;9.228;2023-05-28T08:01:14;100779.66;;;19.11;73.65
21504;BME280;10913;51.992;9.228;2023-05-28T08:03:40;100779.28;;;19.47;74.96
21504;BME280;10913;51.992;9.228;2023-05-28T08:06:06;100776.44;;;19.78;70.77
21504;BME280;10913;51.992;9.228;2023-05-28T08:08:32;100777.59;;;19.94;68.80
21504;BME280;10913;51.992;9.228;2023-05-28T08:10:58;100776.91;;;20.12;70.15
21504;BME280;10913;51.992;9.228;2023-05-28T08:13:23;100772.56;;;20.32;68.64
21504;BME280;10913;51.992;9.228;2023-05-28T08:15:48;100769.88;;;20.55;67.04
21504;BME280;10913;51.992;9.228;2023-05-28T08:18:14;100768.75;;;20.82;67.05
21504;BME280;10913;51.992;9.228;2023-05-28T08:20:40;100770.59;;;21.02;63.89
21504;BME280;10913;51.992;9.228;2023-05-28T08:23:06;100769.59;;;21.05;59.75
21504;BME280;10913;51.992;9.228;2023-05-28T08:25:32;100760.41;;;21.10;59.57
21504;BME280;10913;51.992;9.228;2023-05-28T08:27:57;100759.09;;;21.20;58.53
21504;BME280;10913;51.992;9.228;2023-05-28T08:30:23;100758.84;;;21.26;58.25
21504;BME280;10913;51.992;9.228;2023-05-28T08:32:48;100752.06;;;21.38;59.61
21504;BME280;10913;51.992;9.228;2023-05-28T08:35:14;100757.75;;;21.51;56.91
21504;BME280;10913;51.992;9.228;2023-05-28T08:37:39;100752.25;;;21.54;54.24
21504;BME280;10913;51.992;9.228;2023-05-28T08:40:06;100745.94;;;21.55;55.66
21504;BME280;10913;51.992;9.228;2023-05-28T08:42:34;100749.00;;;21.66;56.38
21504;BME280;10913;51.992;9.228;2023-05-28T08:45:01;100751.94;;;21.80;54.36
21504;BME280;10913;51.992;9.228;2023-05-28T08:47:28;100750.28;;;21.78;53.89
21504;BME280;10913;51.992;9.228;2023-05-28T08:49:59;100747.22;;;21.85;56.61
21504;BME280;10913;51.992;9.228;2023-05-28T08:52:31;100749.47;;;22.15;58.00
21504;BME280;10913;51.992;9.228;2023-05-28T08:54:58;100746.09;;;22.47;55.42
21504;BME280;10913;51.992;9.228;2023-05-28T08:57:25;100743.28;;;22.67;55.76
21504;BME280;10913;51.992;9.228;2023-05-28T08:59:52;100747.34;;;22.95;56.58
21504;BME280;10913;51.992;9.228;2023-05-28T09:02:23;100739.66;;;23.22;55.44
21504;BME280;10913;51.992;9.228;2023-05-28T09:04:48;100743.75;;;23.46;55.84
21504;BME280;10913;51.992;9.228;2023-05-28T09:07:15;100735.34;;;23.69;55.53
21504;BME280;10913;51.992;9.228;2023-05-28T09:09:40;100731.53;;;23.74;53.80
21504;BME280;10913;51.992;9.228;2023-05-28T09:12:10;100730.16;;;23.82;54.42
21504;BME280;10913;51.992;9.228;2023-05-28T09:14:41;100723.94;;;23.97;54.36
21504;BME280;10913;51.992;9.228;2023-05-28T09:17:07;100721.25;;;24.13;54.92
21504;BME280;10913;51.992;9.228;2023-05-28T09:19:38;100722.63;;;24.20;53.05
21504;BME280;10913;51.992;9.228;2023-05-28T09:22:04;100727.34;;;24.17;52.72
21504;BME280;10913;51.992;9.228;2023-05-28T09:24:30;100723.47;;;24.05;52.96
21504;BME280;10913;51.992;9.228;2023-05-28T09:26:59;100716.44;;;24.02;52.07
21504;BME280;10913;51.992;9.228;2023-05-28T09:29:25;100720.63;;;24.08;51.51
21504;BME280;10913;51.992;9.228;2023-05-28T09:31:55;100719.03;;;23.88;52.31
21504;BME280;10913;51.992;9.228;2023-05-28T09:34:25;100720.22;;;23.83;52.02
21504;BME280;10913;51.992;9.228;2023-05-28T09:36:51;100723.97;;;23.80;53.83
21504;BME280;10913;51.992;9.228;2023-05-28T09:39:17;100717.41;;;23.68;52.13
21504;BME280;10913;51.992;9.228;2023-05-28T09:41:43;100711.94;;;23.70;53.44
21504;BME280;10913;51.992;9.228;2023-05-28T09:44:09;100714.50;;;23.89;54.42
21504;BME280;10913;51.992;9.228;2023-05-28T09:46:36;100710.84;;;23.90;51.87
21504;BME280;10913;51.992;9.228;2023-05-28T09:49:03;100701.78;;;23.91;51.06
21504;BME280;10913;51.992;9.228;2023-05-28T09:51:30;100703.22;;;23.98;51.04
21504;BME280;10913;51.992;9.228;2023-05-28T09:56:32;100703.28;;;24.12;52.56
21504;BME280;10913;51.992;9.228;2023-05-28T09:59:02;100700.22;;;24.18;51.12
21504;BME280;10913;51.992;9.228;2023-05-28T10:01:37;100694.25;;;24.13;51.83
21504;BME280;10913;51.992;9.228;2023-05-28T10:04:08;100695.53;;;24.06;51.61
21504;BME280;10913;51.992;9.228;2023-05-28T10:06:35;100697.28;;;24.07;51.80
21504;BME280;10913;51.992;9.228;2023-05-28T10:09:03;100693.28;;;24.14;52.55
21504;BME280;10913;51.992;9.228;2023-05-28T10:11:31;100710.38;;;24.30;54.30
21504;BME280;10913;51.992;9.228;2023-05-28T10:13:59;100708.09;;;24.38;54.79
21504;BME280;10913;51.992;9.228;2023-05-28T10:16:25;100701.97;;;24.66;55.03
21504;BME280;10913;51.992;9.228;2023-05-28T10:18:53;100695.19;;;24.75;53.67
21504;BME280;10913;51.992;9.228;2023-05-28T10:21:18;100701.25;;;24.79;53.88
21504;BME280;10913;51.992;9.228;2023-05-28T10:23:47;100695.84;;;24.79;54.04
21504;BME280;10913;51.992;9.228;2023-05-28T10:26:14;100694.81;;;24.97;55.94
21504;BME280;10913;51.992;9.228;2023-05-28T10:28:41;100694.84;;;25.11;55.44
21504;BME280;10913;51.992;9.228;2023-05-28T10:31:07;100686.09;;;25.36;54.40
21504;BME280;10913;51.992;9.228;2023-05-28T10:38:44;100690.56;;;25.80;53.69
21504;BME280;10913;51.992;9.228;2023-05-28T10:41:10;100692.88;;;25.86;53.84
21504;BME280;10913;51.992;9.228;2023-05-28T10:48:39;100694.50;;;26.17;52.86
21504;BME280;10913;51.992;9.228;2023-05-28T10:51:05;100687.41;;;26.28;52.33
21504;BME280;10913;51.992;9.228;2023-05-28T10:53:31;100682.59;;;26.33;52.68
21504;BME280;10913;51.992;9.228;2023-05-28T10:55:56;100688.25;;;26.43;51.58
21504;BME280;10913;51.992;9.228;2023-05-28T11:00:47;100694.19;;;26.35;51.43
21504;BME280;10913;51.992;9.228;2023-05-28T11:03:13;100693.22;;;26.22;51.32
21504;BME280;10913;51.992;9.228;2023-05-28T11:05:39;100688.00;;;26.19;50.33
21504;BME280;10913;51.992;9.228;2023-05-28T11:08:04;100687.88;;;25.94;50.23
21504;BME280;10913;51.992;9.228;2023-05-28T11:10:30;100688.56;;;25.69;49.41
21504;BME280;10913;51.992;9.228;2023-05-28T11:12:56;100693.09;;;25.68;51.06
21504;BME280;10913;51.992;9.228;2023-05-28T11:15:22;100679.53;;;25.83;51.61
21504;BME280;10913;51.992;9.228;2023-05-28T11:17:47;100681.44;;;26.09;52.16
21504;BME280;10913;51.992;9.228;2023-05-28T11:20:25;100695.28;;;26.33;52.12
21504;BME280;10913;51.992;9.228;2023-05-28T11:22:52;100691.56;;;26.61;50.83
21504;BME280;10913;51.992;9.228;2023-05-28T11:25:18;100693.03;;;26.79;50.05
21504;BME280;10913;51.992;9.228;2023-05-28T11:27:47;100686.91;;;26.63;50.27
21504;BME280;10913;51.992;9.228;2023-05-28T11:30:15;100682.00;;;26.82;50.16
21504;BME280;10913;51.992;9.228;2023-05-28T11:32:42;100682.47;;;26.89;50.33
21504;BME280;10913;51.992;9.228;2023-05-28T11:35:15;100687.84;;;26.76;47.71
21504;BME280;10913;51.992;9.228;2023-05-28T11:37:44;100685.28;;;26.60;49.51
21504;BME280;10913;51.992;9.228;2023-05-28T11:40:12;100688.66;;;26.64;50.02
21504;BME280;10913;51.992;9.228;2023-05-28T11:42:40;100679.56;;;26.65;49.73
21504;BME280;10913;51.992;9.228;2023-05-28T11:45:07;100683.72;;;26.83;49.34
21504;BME280;10913;51.992;9.228;2023-05-28T11:47:34;100685.06;;;26.90;48.51
21504;BME280;10913;51.992;9.228;2023-05-28T11:50:08;100682.47;;;26.89;49.85
21504;BME280;10913;51.992;9.228;2023-05-28T11:52:34;100690.53;;;27.03;48.65
21504;BME280;10913;51.992;9.228;2023-05-28T11:55:02;100690.34;;;27.19;48.63
21504;BME280;10913;51.992;9.228;2023-05-28T11:57:30;100685.16;;;27.28;48.49
21504;BME280;10913;51.992;9.228;2023-05-28T12:00:01;100684.94;;;27.31;48.02
21504;BME280;10913;51.992;9.228;2023-05-28T12:02:32;100685.69;;;27.21;47.69
21504;BME280;10913;51.992;9.228;2023-05-28T12:05:00;100681.88;;;27.10;48.19
21504;BME280;10913;51.992;9.228;2023-05-28T12:07:31;100690.88;;;27.11;48.66
21504;BME280;10913;51.992;9.228;2023-05-28T12:10:12;100686.34;;;27.12;47.45
21504;BME280;10913;51.992;9.228;2023-05-28T12:12:45;100684.19;;;27.17;47.64
21504;BME280;10913;51.992;9.228;2023-05-28T12:15:11;100680.25;;;27.21;47.27
21504;BME280;10913;51.992;9.228;2023-05-28T12:17:39;100672.53;;;27.02;47.21
21504;BME280;10913;51.992;9.228;2023-05-28T12:22:31;100670.75;;;26.88;47.99
21504;BME280;10913;51.992;9.228;2023-05-28T12:24:57;100673.44;;;26.88;48.54
21504;BME280;10913;51.992;9.228;2023-05-28T12:27:22;100661.00;;;26.98;48.13
21504;BME280;10913;51.992;9.228;2023-05-28T12:29:48;100673.94;;;27.07;47.58
21504;BME280;10913;51.992;9.228;2023-05-28T12:32:13;100658.22;;;27.13;47.00
21504;BME280;10913;51.992;9.228;2023-05-28T12:34:39;100657.91;;;27.17;47.45
21504;BME280;10913;51.992;9.228;2023-05-28T12:37:04;100651.06;;;27.12;47.17
21504;BME280;10913;51.992;9.228;2023-05-28T12:39:30;100665.31;;;26.88;47.92
21504;BME280;10913;51.992;9.228;2023-05-28T12:41:56;100659.81;;;26.63;47.80
21504;BME280;10913;51.992;9.228;2023-05-28T12:44:21;100662.50;;;26.50;48.48
21504;BME280;10913;51.992;9.228;2023-05-28T12:46:47;100662.13;;;26.42;48.68
21504;BME280;10913;51.992;9.228;2023-05-28T12:49:12;100671.41;;;26.38;48.87
21504;BME280;10913;51.992;9.228;2023-05-28T12:51:38;100658.09;;;26.35;49.40
21504;BME280;10913;51.992;9.228;2023-05-28T12:54:06;100663.81;;;26.30;49.84
21504;BME280;10913;51.992;9.228;2023-05-28T12:56:31;100664.00;;;26.27;49.37
21504;BME280;10913;51.992;9.228;2023-05-28T12:58:57;100663.19;;;26.39;49.31
21504;BME280;10913;51.992;9.228;2023-05-28T13:01:23;100659.88;;;26.49;48.51
21504;BME280;10913;51.992;9.228;2023-05-28T13:03:49;100656.13;;;26.64;48.05